createdAt,value
2023-01-04T00:00:03.655Z,8.15
2023-01-04T00:00:37.043Z,8.15
2023-01-04T00:01:11.576Z,7.72
2023-01-04T00:01:43.399Z,8.50
2023-01-04T00:02:16.219Z,7.82
2023-01-04T00:02:48.211Z,7.95
2023-01-04T00:03:20.231Z,7.18
2023-01-04T00:03:53.144Z,7.32
2023-01-04T00:04:25.044Z,8.25
2023-01-04T00:04:57.845Z,7.55
2023-01-04T00:05:29.654Z,7.57
2023-01-04T00:06:05.031Z,8.23
2023-01-04T00:06:37.827Z,7.93
2023-01-04T00:07:09.759Z,8.45
2023-01-04T00:07:42.979Z,7.70
2023-01-04T00:08:15.726Z,8.38
2023-01-04T00:08:47.788Z,8.20
2023-01-04T00:09:19.789Z,7.80
2023-01-04T00:09:52.565Z,8.10
2023-01-04T00:10:24.386Z,7.60
2023-01-04T00:11:00.729Z,8.00
2023-01-04T00:11:33.758Z,7.78
2023-01-04T00:12:06.054Z,7.70
2023-01-04T00:12:37.811Z,7.90
2023-01-04T00:13:10.589Z,6.55
2023-01-04T00:13:42.346Z,7.65
2023-01-04T00:14:14.622Z,8.60
2023-01-04T00:14:48.306Z,8.13
2023-01-04T00:15:20.355Z,7.72
2023-01-04T00:15:52.227Z,8.25
2023-01-04T00:16:27.018Z,8.10
2023-01-04T00:16:58.887Z,7.90
2023-01-04T00:17:30.686Z,7.85
2023-01-04T00:18:03.486Z,7.88
2023-01-04T00:18:36.734Z,7.07
2023-01-04T00:19:09.624Z,8.93
2023-01-04T00:19:42.434Z,8.40
2023-01-04T00:20:14.357Z,7.78
2023-01-04T00:20:46.147Z,7.43
2023-01-04T00:21:20.719Z,7.22
2023-01-04T00:21:53.179Z,7.47
2023-01-04T00:22:25.180Z,7.32
2023-01-04T00:22:59.568Z,8.32
2023-01-04T00:23:31.365Z,8.10
2023-01-04T00:24:03.385Z,7.60
2023-01-04T00:24:36.194Z,7.60
2023-01-04T00:25:09.007Z,7.88
2023-01-04T00:25:41.308Z,7.30
2023-01-04T00:26:16.086Z,8.40
2023-01-04T00:26:47.989Z,7.90
2023-01-04T00:27:19.791Z,7.88
2023-01-04T00:27:52.709Z,7.53
2023-01-04T00:28:24.490Z,7.65
2023-01-04T00:28:57.808Z,8.00
2023-01-04T00:29:30.674Z,7.68
2023-01-04T00:30:02.482Z,7.57
2023-01-04T00:30:34.259Z,8.75
2023-01-04T00:31:07.273Z,8.02
2023-01-04T00:31:40.335Z,7.28
2023-01-04T00:32:12.179Z,8.45
2023-01-04T00:32:44.551Z,7.85
2023-01-04T00:33:17.298Z,7.80
2023-01-04T00:33:49.157Z,8.15
2023-01-04T00:34:20.933Z,7.38
2023-01-04T00:34:53.672Z,8.55
2023-01-04T00:35:44.548Z,8.02
2023-01-04T00:36:18.396Z,8.02
2023-01-04T00:36:50.184Z,8.43
2023-01-04T00:37:22.925Z,8.10
2023-01-04T00:37:54.711Z,7.70
2023-01-04T00:38:27.815Z,7.18
2023-01-04T00:39:12.302Z,8.02
2023-01-04T00:39:44.094Z,7.93
2023-01-04T00:40:16.086Z,7.40
2023-01-04T00:40:48.835Z,8.68
2023-01-04T00:41:49.192Z,8.45
2023-01-04T00:42:13.456Z,7.38
2023-01-04T00:42:45.293Z,7.85
2023-01-04T00:43:17.091Z,7.88
2023-01-04T00:43:49.819Z,7.50
2023-01-04T00:44:21.656Z,7.28
2023-01-04T00:44:54.450Z,7.43
2023-01-04T00:45:26.230Z,8.02
2023-01-04T00:45:58.159Z,8.68
2023-01-04T00:46:31.722Z,7.28
2023-01-04T00:47:04.662Z,8.02
2023-01-04T00:47:36.452Z,7.80
2023-01-04T00:48:09.174Z,7.32
2023-01-04T00:48:43.014Z,7.50
2023-01-04T00:49:16.823Z,7.05
2023-01-04T00:49:49.593Z,7.55
2023-01-04T00:50:21.396Z,9.05
2023-01-04T00:50:53.269Z,8.63
2023-01-04T00:51:26.105Z,8.30
2023-01-04T00:51:58.786Z,7.63
2023-01-04T00:52:30.582Z,8.25
2023-01-04T00:53:03.326Z,8.10
2023-01-04T00:53:36.559Z,8.85
2023-01-04T00:54:13.653Z,8.85
2023-01-04T00:54:46.271Z,7.63
2023-01-04T00:55:18.078Z,7.80
2023-01-04T00:55:50.847Z,7.88
2023-01-04T00:56:22.696Z,8.60
2023-01-04T00:56:54.645Z,8.45
2023-01-04T00:57:27.419Z,7.63
2023-01-04T00:57:59.234Z,8.45
2023-01-04T00:58:31.043Z,7.72
2023-01-04T00:59:05.273Z,8.73
2023-01-04T00:59:37.193Z,7.70
2023-01-04T01:00:11.061Z,8.75
2023-01-04T01:00:43.096Z,7.75
2023-01-04T01:01:15.061Z,9.95
2023-01-04T01:01:48.834Z,9.63
2023-01-04T01:02:20.998Z,9.00
2023-01-04T01:02:52.935Z,8.55
2023-01-04T01:03:25.835Z,8.35
2023-01-04T01:03:59.869Z,7.55
2023-01-04T01:04:31.813Z,9.23
2023-01-04T01:05:04.835Z,8.93
2023-01-04T01:05:36.659Z,8.25
2023-01-04T01:06:08.659Z,8.15
2023-01-04T01:06:42.430Z,8.48
2023-01-04T01:07:14.264Z,8.38
2023-01-04T01:07:46.055Z,7.57
2023-01-04T01:08:27.710Z,9.20
2023-01-04T01:09:01.639Z,8.05
2023-01-04T01:09:33.693Z,8.75
2023-01-04T01:10:07.700Z,9.45
2023-01-04T01:10:39.460Z,8.30
2023-01-04T01:11:11.641Z,7.57
2023-01-04T01:11:44.706Z,9.00
2023-01-04T01:12:16.476Z,8.02
2023-01-04T01:12:48.295Z,8.05
2023-01-04T01:13:21.823Z,8.38
2023-01-04T01:13:54.019Z,7.65
2023-01-04T01:14:27.004Z,8.38
2023-01-04T01:15:00.792Z,8.02
2023-01-04T01:15:34.920Z,8.73
2023-01-04T01:16:09.820Z,7.47
2023-01-04T01:16:58.473Z,8.10
2023-01-04T01:17:31.767Z,8.32
2023-01-04T01:18:03.665Z,8.13
2023-01-04T01:18:36.631Z,7.72
2023-01-04T01:19:09.705Z,8.25
2023-01-04T01:19:41.518Z,7.95
2023-01-04T01:20:13.398Z,9.00
2023-01-04T01:20:46.838Z,8.88
2023-01-04T01:21:20.454Z,8.05
2023-01-04T01:21:52.256Z,8.80
2023-01-04T01:22:25.009Z,8.40
2023-01-04T01:22:56.853Z,8.60
2023-01-04T01:23:29.699Z,7.30
2023-01-04T01:24:03.786Z,8.07
2023-01-04T01:24:35.619Z,7.57
2023-01-04T01:25:07.956Z,7.88
2023-01-04T01:25:41.336Z,8.15
2023-01-04T01:26:15.751Z,7.80
2023-01-04T01:26:47.537Z,7.68
2023-01-04T01:27:20.405Z,6.80
2023-01-04T01:27:52.317Z,7.50
2023-01-04T01:28:24.112Z,8.00
2023-01-04T01:28:57.030Z,7.95
2023-01-04T01:29:29.047Z,7.45
2023-01-04T01:30:00.858Z,7.35
2023-01-04T01:30:33.892Z,8.07
2023-01-04T01:31:08.814Z,7.45
2023-01-04T01:31:41.737Z,7.97
2023-01-04T01:32:14.673Z,6.95
2023-01-04T01:32:46.466Z,7.68
2023-01-04T01:33:18.313Z,8.00
2023-01-04T01:33:53.008Z,7.55
2023-01-04T01:34:24.859Z,7.85
2023-01-04T01:34:57.654Z,7.60
2023-01-04T01:35:29.413Z,8.30
2023-01-04T01:36:01.951Z,7.28
2023-01-04T01:36:34.819Z,6.55
2023-01-04T01:37:06.627Z,7.00
2023-01-04T01:37:38.494Z,8.02
2023-01-04T01:38:11.600Z,7.40
2023-01-04T01:38:44.045Z,7.43
2023-01-04T01:39:17.196Z,7.00
2023-01-04T01:39:49.943Z,6.97
2023-01-04T01:40:21.718Z,6.80
2023-01-04T01:40:53.768Z,7.30
2023-01-04T01:41:28.078Z,7.60
2023-01-04T01:41:59.907Z,8.25
2023-01-04T01:42:31.689Z,7.05
2023-01-04T01:43:04.500Z,7.85
2023-01-04T01:43:52.683Z,8.73
2023-01-04T01:45:11.183Z,7.53
2023-01-04T01:45:43.084Z,9.10
2023-01-04T01:46:15.983Z,6.95
2023-01-04T01:46:52.731Z,6.95
2023-01-04T01:47:28.941Z,7.70
2023-01-04T01:48:06.804Z,6.57
2023-01-04T01:48:40.769Z,7.82
2023-01-04T01:49:19.132Z,8.02
2023-01-04T01:49:53.756Z,7.75
2023-01-04T01:50:30.255Z,8.82
2023-01-04T01:51:04.154Z,8.23
2023-01-04T01:51:36.048Z,6.70
2023-01-04T01:52:15.383Z,6.82
2023-01-04T01:52:48.886Z,7.85
2023-01-04T01:53:21.133Z,7.75
2023-01-04T01:53:58.807Z,8.00
2023-01-04T01:54:36.939Z,7.38
2023-01-04T01:55:10.882Z,8.07
2023-01-04T01:55:45.707Z,7.10
2023-01-04T01:56:19.536Z,7.78
2023-01-04T01:56:51.753Z,7.68
2023-01-04T01:57:27.891Z,7.78
2023-01-04T01:58:00.869Z,7.38
2023-01-04T01:58:38.562Z,7.32
2023-01-04T01:59:12.602Z,7.68
2023-01-04T01:59:47.815Z,7.80
2023-01-04T02:00:20.747Z,8.02
2023-01-04T02:00:52.704Z,7.57
2023-01-04T02:01:25.606Z,7.60
2023-01-04T02:01:58.522Z,7.35
2023-01-04T02:02:30.702Z,7.47
2023-01-04T02:03:16.162Z,8.55
2023-01-04T02:03:48.197Z,7.97
2023-01-04T02:04:20.088Z,8.45
2023-01-04T02:04:52.173Z,7.35
2023-01-04T02:05:26.942Z,8.25
2023-01-04T02:06:01.694Z,7.55
2023-01-04T02:06:38.907Z,7.32
2023-01-04T02:07:13.175Z,8.07
2023-01-04T02:07:45.517Z,7.75
2023-01-04T02:08:20.020Z,6.75
2023-01-04T02:08:52.460Z,8.25
2023-01-04T02:09:24.839Z,7.45
2023-01-04T02:09:59.999Z,7.97
2023-01-04T02:10:33.410Z,8.60
2023-01-04T02:11:05.690Z,7.30
2023-01-04T02:11:37.469Z,7.97
2023-01-04T02:12:12.185Z,8.40
2023-01-04T02:12:46.192Z,7.95
2023-01-04T02:13:21.416Z,7.53
2023-01-04T02:14:12.262Z,6.40
2023-01-04T02:14:47.773Z,7.60
2023-01-04T02:15:21.201Z,6.93
2023-01-04T02:16:09.476Z,7.15
2023-01-04T02:17:07.037Z,9.73
2023-01-04T02:17:49.820Z,7.55
2023-01-04T02:18:25.401Z,6.45
2023-01-04T02:19:06.978Z,6.90
2023-01-04T02:19:57.522Z,7.32
2023-01-04T02:20:37.680Z,7.28
2023-01-04T02:21:15.249Z,7.65
2023-01-04T02:22:04.411Z,7.38
2023-01-04T02:23:25.410Z,7.13
2023-01-04T02:24:34.497Z,6.40
2023-01-04T02:25:31.871Z,7.72
2023-01-04T02:26:49.291Z,6.70
2023-01-04T02:27:47.732Z,6.90
2023-01-04T02:28:34.278Z,6.35
2023-01-04T02:29:32.688Z,7.07
2023-01-04T02:30:35.947Z,7.03
2023-01-04T02:31:30.754Z,6.82
2023-01-04T02:32:10.925Z,7.60
2023-01-04T02:32:59.692Z,7.40
2023-01-04T02:33:44.235Z,7.10
2023-01-04T02:34:23.835Z,6.80
2023-01-04T02:35:02.171Z,6.80
2023-01-04T02:35:44.644Z,7.30
2023-01-04T02:36:21.580Z,7.20
2023-01-04T02:37:00.783Z,7.20
2023-01-04T02:37:41.364Z,7.90
2023-01-04T02:38:17.638Z,7.50
2023-01-04T02:39:03.257Z,7.30
2023-01-04T02:39:44.158Z,7.70
2023-01-04T02:40:21.633Z,7.88
2023-01-04T02:41:03.799Z,8.60
2023-01-04T02:41:42.810Z,7.10
2023-01-04T02:42:46.424Z,7.53
2023-01-04T02:43:45.277Z,7.80
2023-01-04T02:44:37.727Z,7.65
2023-01-04T02:45:10.249Z,7.07
2023-01-04T02:45:50.361Z,7.72
2023-01-04T02:46:28.492Z,7.90
2023-01-04T02:47:06.145Z,7.65
2023-01-04T02:47:57.645Z,8.15
2023-01-04T02:48:54.226Z,8.10
2023-01-04T02:49:44.724Z,8.40
2023-01-04T02:50:30.985Z,8.13
2023-01-04T02:51:03.761Z,7.28
2023-01-04T02:51:37.556Z,8.10
2023-01-04T02:52:09.351Z,7.28
2023-01-04T02:52:41.135Z,8.15
2023-01-04T02:53:17.988Z,8.57
2023-01-04T02:53:49.942Z,7.72
2023-01-04T02:54:25.147Z,8.35
2023-01-04T02:54:58.863Z,7.50
2023-01-04T02:55:55.760Z,8.85
2023-01-04T02:56:37.534Z,8.23
2023-01-04T02:57:30.959Z,7.78
2023-01-04T02:58:13.308Z,7.55
2023-01-04T02:59:09.990Z,7.80
2023-01-04T03:00:17.211Z,7.45
2023-01-04T03:01:14.621Z,7.22
2023-01-04T03:02:15.530Z,7.53
2023-01-04T03:03:32.146Z,8.02
2023-01-04T03:04:36.617Z,8.38
2023-01-04T03:05:34.462Z,7.97
2023-01-04T03:06:16.834Z,7.90
2023-01-04T03:06:55.673Z,7.93
2023-01-04T03:07:35.497Z,10.13
2023-01-04T03:08:16.800Z,8.50
2023-01-04T03:08:55.664Z,8.32
2023-01-04T03:09:34.127Z,8.50
2023-01-04T03:10:11.084Z,8.63
2023-01-04T03:10:49.227Z,9.10
2023-01-04T03:11:40.018Z,8.82
2023-01-04T03:12:31.494Z,9.68
2023-01-04T03:13:09.212Z,8.45
2023-01-04T03:13:45.681Z,9.02
2023-01-04T03:14:32.700Z,7.65
2023-01-04T03:15:11.376Z,8.38
2023-01-04T03:15:49.691Z,8.73
2023-01-04T03:16:24.799Z,9.13
2023-01-04T03:16:56.784Z,9.05
2023-01-04T03:17:35.095Z,9.70
2023-01-04T03:18:16.397Z,10.05
2023-01-04T03:18:51.047Z,8.55
2023-01-04T03:19:40.692Z,8.48
2023-01-04T03:20:16.589Z,7.80
2023-01-04T03:20:52.524Z,9.70
2023-01-04T03:21:26.403Z,9.00
2023-01-04T03:21:58.370Z,8.77
2023-01-04T03:22:52.973Z,9.65
2023-01-04T03:23:48.374Z,9.05
2023-01-04T03:24:38.928Z,8.95
2023-01-04T03:25:31.417Z,10.07
2023-01-04T03:26:25.923Z,8.60
2023-01-04T03:27:21.527Z,9.27
2023-01-04T03:28:13.220Z,8.50
2023-01-04T03:29:04.263Z,9.15
2023-01-04T03:29:57.711Z,9.48
2023-01-04T03:30:50.143Z,9.43
2023-01-04T03:31:44.967Z,9.50
2023-01-04T03:32:41.075Z,9.00
2023-01-04T03:33:35.353Z,9.95
2023-01-04T03:34:26.181Z,9.45
2023-01-04T03:35:17.120Z,8.60
2023-01-04T03:35:56.297Z,8.45
2023-01-04T03:36:39.507Z,10.98
2023-01-04T03:37:17.979Z,8.40
2023-01-04T03:38:13.894Z,9.32
2023-01-04T03:39:18.885Z,10.05
2023-01-04T03:40:37.353Z,9.35
2023-01-04T03:41:35.198Z,9.50
2023-01-04T03:42:32.784Z,8.38
2023-01-04T03:43:27.333Z,9.57
2023-01-04T03:44:26.210Z,9.35
2023-01-04T03:45:27.577Z,8.88
2023-01-04T03:46:24.102Z,8.32
2023-01-04T03:47:22.319Z,9.85
2023-01-04T03:48:19.289Z,8.82
2023-01-04T03:49:00.041Z,9.00
2023-01-04T03:49:38.890Z,8.55
2023-01-04T03:50:14.918Z,9.27
2023-01-04T03:50:50.682Z,9.43
2023-01-04T03:51:27.749Z,9.68
2023-01-04T03:52:04.253Z,8.75
2023-01-04T03:52:36.705Z,8.82
2023-01-04T03:53:09.974Z,9.32
2023-01-04T03:53:51.568Z,9.55
2023-01-04T03:54:29.725Z,9.82
2023-01-04T03:55:03.478Z,9.10
2023-01-04T03:55:38.185Z,10.07
2023-01-04T03:56:12.753Z,10.55
2023-01-04T03:56:45.978Z,9.75
2023-01-04T03:57:19.386Z,9.68
2023-01-04T03:57:52.298Z,8.43
2023-01-04T03:58:24.678Z,9.70
2023-01-04T03:58:57.672Z,9.35
2023-01-04T03:59:29.755Z,9.75
2023-01-04T04:00:07.960Z,9.25
2023-01-04T04:00:40.849Z,10.35
2023-01-04T04:01:13.207Z,9.73
2023-01-04T04:01:45.714Z,9.25
2023-01-04T04:02:26.398Z,9.18
2023-01-04T04:03:07.059Z,9.18
2023-01-04T04:03:57.627Z,8.05
2023-01-04T04:04:49.213Z,8.57
2023-01-04T04:05:43.183Z,8.20
2023-01-04T04:06:34.161Z,8.90
2023-01-04T04:07:25.672Z,8.57
2023-01-04T04:08:16.148Z,8.25
2023-01-04T04:08:48.925Z,8.60
2023-01-04T04:09:20.951Z,8.18
2023-01-04T04:09:52.732Z,9.00
2023-01-04T04:10:24.756Z,9.07
2023-01-04T04:11:18.984Z,8.43
2023-01-04T04:11:50.931Z,7.95
2023-01-04T04:12:22.752Z,8.80
2023-01-04T04:12:55.557Z,8.88
2023-01-04T04:13:27.445Z,9.38
2023-01-04T04:13:59.988Z,9.88
2023-01-04T04:14:32.760Z,8.55
2023-01-04T04:15:05.602Z,8.95
2023-01-04T04:15:37.502Z,10.38
2023-01-04T04:16:09.437Z,9.32
2023-01-04T04:16:42.601Z,9.10
2023-01-04T04:17:14.545Z,8.65
2023-01-04T04:17:46.411Z,8.85
2023-01-04T04:18:19.309Z,8.75
2023-01-04T04:18:51.240Z,9.63
2023-01-04T04:19:23.078Z,8.07
2023-01-04T04:19:57.206Z,8.07
2023-01-04T04:20:29.180Z,9.50
2023-01-04T04:21:01.137Z,8.38
2023-01-04T04:21:34.177Z,7.95
2023-01-04T04:22:06.134Z,8.05
2023-01-04T04:22:37.950Z,8.70
2023-01-04T04:23:09.745Z,8.02
2023-01-04T04:23:42.488Z,8.40
2023-01-04T04:24:18.927Z,9.13
2023-01-04T04:24:50.803Z,8.75
2023-01-04T04:25:23.599Z,8.05
2023-01-04T04:25:55.422Z,8.75
2023-01-04T04:26:27.226Z,8.43
2023-01-04T04:27:00.128Z,8.55
2023-01-04T04:27:32.035Z,7.13
2023-01-04T04:28:04.119Z,8.60
2023-01-04T04:28:36.048Z,8.00
2023-01-04T04:29:08.926Z,8.40
2023-01-04T04:29:40.718Z,7.68
2023-01-04T04:30:13.199Z,8.35
2023-01-04T04:30:45.936Z,8.60
2023-01-04T04:31:17.933Z,7.80
2023-01-04T04:31:49.988Z,7.82
2023-01-04T04:32:22.857Z,9.23
2023-01-04T04:32:54.658Z,7.30
2023-01-04T04:33:26.520Z,8.05
2023-01-04T04:33:59.333Z,7.88
2023-01-04T04:34:31.256Z,7.50
2023-01-04T04:35:04.919Z,7.60
2023-01-04T04:35:37.738Z,7.60
2023-01-04T04:36:09.858Z,7.82
2023-01-04T04:36:42.767Z,7.28
2023-01-04T04:37:14.596Z,7.80
2023-01-04T04:37:46.398Z,7.40
2023-01-04T04:38:18.587Z,6.30
2023-01-04T04:38:51.386Z,7.90
2023-01-04T04:39:23.304Z,7.32
2023-01-04T04:39:55.086Z,6.80
2023-01-04T04:40:45.407Z,6.35
2023-01-04T04:41:35.828Z,7.32
2023-01-04T04:42:09.502Z,5.93
2023-01-04T04:42:41.304Z,5.88
2023-01-04T04:43:13.138Z,6.05
2023-01-04T04:43:44.975Z,6.03
2023-01-04T04:44:19.587Z,6.15
2023-01-04T04:44:51.439Z,5.70
2023-01-04T04:45:23.255Z,5.95
2023-01-04T04:45:55.181Z,6.40
2023-01-04T04:46:28.239Z,6.53
2023-01-04T04:47:00.138Z,5.60
2023-01-04T04:47:31.942Z,6.18
2023-01-04T04:48:03.981Z,6.30
2023-01-04T04:48:36.819Z,6.25
2023-01-04T04:49:09.744Z,6.00
2023-01-04T04:49:43.549Z,5.90
2023-01-04T04:50:16.819Z,4.75
2023-01-04T04:50:48.644Z,5.10
2023-01-04T04:51:21.478Z,5.82
2023-01-04T04:51:53.838Z,4.80
2023-01-04T04:52:25.679Z,4.97
2023-01-04T04:52:58.526Z,5.63
2023-01-04T04:53:30.387Z,5.10
2023-01-04T04:54:02.631Z,5.93
2023-01-04T04:54:35.454Z,5.97
2023-01-04T04:55:08.267Z,5.25
2023-01-04T04:55:40.224Z,5.95
2023-01-04T04:56:13.327Z,4.95
2023-01-04T04:56:45.331Z,4.57
2023-01-04T04:57:17.173Z,5.80
2023-01-04T04:57:50.005Z,4.22
2023-01-04T04:58:22.143Z,5.90
2023-01-04T04:58:54.193Z,6.15
2023-01-04T04:59:26.977Z,5.25
2023-01-04T04:59:58.788Z,4.68
2023-01-04T05:00:30.673Z,4.53
2023-01-04T05:01:03.539Z,4.18
2023-01-04T05:01:35.679Z,4.43
2023-01-04T05:02:07.923Z,4.97
2023-01-04T05:02:40.947Z,4.75
2023-01-04T05:03:13.029Z,4.47
2023-01-04T05:03:44.993Z,4.32
2023-01-04T05:04:19.384Z,4.63
2023-01-04T05:04:51.247Z,4.13
2023-01-04T05:05:24.418Z,4.45
2023-01-04T05:05:56.236Z,4.15
2023-01-04T05:06:29.423Z,3.72
2023-01-04T05:07:01.223Z,3.85
2023-01-04T05:07:33.034Z,3.88
2023-01-04T05:08:06.249Z,4.47
2023-01-04T05:08:38.103Z,4.35
2023-01-04T05:09:12.124Z,4.18
2023-01-04T05:09:43.920Z,3.95
2023-01-04T05:10:15.998Z,4.10
2023-01-04T05:10:47.830Z,4.00
2023-01-04T05:11:40.740Z,3.65
2023-01-04T05:12:31.433Z,3.60
2023-01-04T05:13:05.761Z,4.07
2023-01-04T05:13:37.995Z,3.97
2023-01-04T05:14:09.993Z,4.40
2023-01-04T05:14:41.894Z,4.13
2023-01-04T05:15:14.733Z,4.07
2023-01-04T05:15:48.198Z,3.80
2023-01-04T05:16:20.970Z,4.10
2023-01-04T05:16:52.871Z,4.00
2023-01-04T05:17:24.720Z,4.07
2023-01-04T05:17:56.593Z,4.35
2023-01-04T05:18:29.489Z,3.60
2023-01-04T05:19:01.363Z,4.00
2023-01-04T05:19:33.140Z,4.10
2023-01-04T05:20:06.503Z,4.10
2023-01-04T05:20:39.679Z,3.50
2023-01-04T05:21:14.457Z,3.10
2023-01-04T05:21:49.697Z,3.17
2023-01-04T05:22:21.558Z,3.50
2023-01-04T05:22:53.427Z,4.30
2023-01-04T05:23:26.384Z,3.97
2023-01-04T05:23:58.215Z,4.00
2023-01-04T05:24:30.037Z,3.50
2023-01-04T05:25:01.925Z,3.08
2023-01-04T05:25:35.264Z,4.18
2023-01-04T05:26:07.084Z,2.80
2023-01-04T05:26:39.286Z,3.97
2023-01-04T05:27:12.069Z,3.67
2023-01-04T05:27:44.374Z,3.05
2023-01-04T05:28:16.275Z,3.72
2023-01-04T05:28:53.644Z,3.67
2023-01-04T05:29:44.805Z,3.00
2023-01-04T05:30:36.271Z,3.10
2023-01-04T05:31:08.111Z,3.03
2023-01-04T05:31:39.979Z,3.30
2023-01-04T05:32:11.913Z,3.15
2023-01-04T05:32:44.296Z,3.33
2023-01-04T05:33:17.563Z,3.80
2023-01-04T05:33:49.496Z,3.58
2023-01-04T05:34:22.452Z,3.70
2023-01-04T05:34:54.522Z,3.10
2023-01-04T05:35:27.648Z,3.45
2023-01-04T05:36:02.720Z,3.38
2023-01-04T05:36:34.510Z,3.00
2023-01-04T05:37:07.307Z,3.03
2023-01-04T05:37:39.097Z,3.83
2023-01-04T05:38:10.926Z,3.33
2023-01-04T05:38:43.823Z,3.53
2023-01-04T05:39:15.673Z,3.13
2023-01-04T05:39:47.541Z,3.92
2023-01-04T05:40:20.641Z,3.10
2023-01-04T05:40:52.969Z,3.10
2023-01-04T05:41:43.121Z,3.13
2023-01-04T05:42:27.860Z,2.95
2023-01-04T05:43:00.644Z,2.80
2023-01-04T05:43:32.475Z,3.45
2023-01-04T05:44:04.312Z,2.80
2023-01-04T05:44:37.190Z,3.60
2023-01-04T05:45:09.627Z,3.72
2023-01-04T05:45:43.993Z,3.20
2023-01-04T05:46:15.909Z,3.40
2023-01-04T05:46:47.934Z,3.20
2023-01-04T05:47:20.721Z,3.25
2023-01-04T05:47:53.667Z,3.05
2023-01-04T05:48:26.522Z,2.92
2023-01-04T05:48:58.529Z,3.60
2023-01-04T05:49:30.341Z,3.17
2023-01-04T05:50:02.294Z,3.45
2023-01-04T05:50:35.157Z,3.50
2023-01-04T05:51:10.651Z,3.70
2023-01-04T05:51:42.449Z,3.20
2023-01-04T05:52:14.285Z,3.55
2023-01-04T05:52:47.542Z,3.00
2023-01-04T05:53:19.442Z,3.60
2023-01-04T05:53:51.281Z,3.85
2023-01-04T05:54:24.092Z,3.05
2023-01-04T05:54:55.888Z,3.17
2023-01-04T05:55:27.710Z,3.20
2023-01-04T05:56:00.486Z,3.13
2023-01-04T05:56:32.346Z,3.28
2023-01-04T05:57:04.425Z,3.35
2023-01-04T05:57:37.174Z,3.35
2023-01-04T05:58:09.382Z,3.55
2023-01-04T05:58:41.215Z,3.15
2023-01-04T05:59:14.949Z,3.30
2023-01-04T05:59:46.924Z,3.40
2023-01-04T06:00:19.202Z,3.30
2023-01-04T06:00:52.424Z,4.00
2023-01-04T06:01:24.301Z,3.15
2023-01-04T06:01:56.224Z,4.03
2023-01-04T06:02:30.298Z,3.10
2023-01-04T06:03:03.529Z,3.67
2023-01-04T06:03:35.853Z,3.05
2023-01-04T06:04:07.951Z,3.55
2023-01-04T06:04:39.829Z,3.20
2023-01-04T06:05:13.536Z,3.03
2023-01-04T06:05:49.389Z,3.67
2023-01-04T06:06:22.533Z,3.17
2023-01-04T06:06:55.272Z,3.70
2023-01-04T06:07:27.267Z,2.90
2023-01-04T06:08:00.145Z,2.80
2023-01-04T06:08:31.996Z,3.47
2023-01-04T06:09:03.987Z,3.00
2023-01-04T06:09:35.803Z,3.08
2023-01-04T06:10:11.025Z,2.80
2023-01-04T06:10:42.868Z,2.97
2023-01-04T06:11:15.028Z,3.42
2023-01-04T06:11:47.112Z,3.25
2023-01-04T06:12:20.085Z,3.30
2023-01-04T06:12:51.908Z,3.08
2023-01-04T06:13:24.829Z,3.22
2023-01-04T06:13:56.681Z,2.70
2023-01-04T06:14:28.471Z,2.58
2023-01-04T06:15:01.845Z,3.20
2023-01-04T06:15:39.355Z,2.85
2023-01-04T06:16:14.765Z,2.40
2023-01-04T06:16:47.577Z,2.70
2023-01-04T06:17:19.796Z,2.55
2023-01-04T06:17:52.559Z,3.25
2023-01-04T06:18:24.428Z,2.25
2023-01-04T06:18:56.354Z,2.60
2023-01-04T06:19:29.182Z,3.10
2023-01-04T06:20:01.019Z,3.05
2023-01-04T06:20:33.809Z,3.30
2023-01-04T06:21:05.606Z,3.30
2023-01-04T06:21:38.823Z,2.70
2023-01-04T06:22:11.636Z,3.40
2023-01-04T06:22:43.469Z,3.15
2023-01-04T06:23:15.314Z,4.13
2023-01-04T06:23:48.179Z,3.30
2023-01-04T06:24:20.137Z,3.05
2023-01-04T06:24:52.950Z,3.60
2023-01-04T06:25:24.743Z,4.35
2023-01-04T06:25:56.589Z,3.55
2023-01-04T06:26:28.373Z,2.65
2023-01-04T06:27:01.417Z,2.90
2023-01-04T06:27:33.334Z,4.40
2023-01-04T06:28:05.157Z,2.78
2023-01-04T06:28:40.993Z,2.47
2023-01-04T06:29:13.655Z,2.95
2023-01-04T06:29:46.515Z,2.55
2023-01-04T06:30:18.435Z,3.30
2023-01-04T06:30:50.368Z,2.70
2023-01-04T06:31:23.307Z,3.17
2023-01-04T06:31:55.608Z,3.50
2023-01-04T06:32:28.554Z,4.65
2023-01-04T06:33:00.393Z,3.83
2023-01-04T06:33:32.408Z,3.15
2023-01-04T06:34:05.253Z,2.95
2023-01-04T06:34:37.100Z,3.00
2023-01-04T06:35:10.176Z,3.10
2023-01-04T06:35:42.007Z,3.22
2023-01-04T06:36:19.571Z,3.45
2023-01-04T06:36:54.502Z,2.63
2023-01-04T06:37:26.337Z,2.72
2023-01-04T06:37:58.206Z,3.15
2023-01-04T06:38:32.226Z,3.28
2023-01-04T06:39:04.538Z,3.75
2023-01-04T06:39:38.068Z,3.40
2023-01-04T06:40:10.703Z,2.70
2023-01-04T06:40:42.533Z,2.85
2023-01-04T06:41:15.306Z,2.97
2023-01-04T06:41:47.305Z,2.95
2023-01-04T06:42:37.705Z,2.85
2023-01-04T06:43:10.513Z,2.63
2023-01-04T06:43:42.328Z,2.80
2023-01-04T06:44:14.424Z,3.72
2023-01-04T06:44:47.331Z,3.50
2023-01-04T06:45:19.134Z,2.80
2023-01-04T06:45:51.000Z,2.67
2023-01-04T06:46:23.988Z,2.88
2023-01-04T06:46:55.861Z,2.85
2023-01-04T06:47:27.701Z,3.80
2023-01-04T06:48:03.414Z,4.18
2023-01-04T06:48:39.186Z,3.17
2023-01-04T06:49:11.024Z,3.88
2023-01-04T06:49:42.875Z,2.80
2023-01-04T06:50:15.671Z,3.03
2023-01-04T06:50:47.492Z,3.00
2023-01-04T06:51:19.874Z,2.75
2023-01-04T06:51:53.971Z,3.38
2023-01-04T06:52:25.899Z,4.20
2023-01-04T06:52:58.681Z,3.42
2023-01-04T06:53:30.529Z,3.22
2023-01-04T06:54:02.350Z,3.50
2023-01-04T06:54:35.159Z,3.28
2023-01-04T06:55:09.291Z,2.95
2023-01-04T06:55:41.211Z,4.20
2023-01-04T06:56:14.411Z,4.00
2023-01-04T06:56:46.193Z,3.50
2023-01-04T06:57:17.978Z,3.22
2023-01-04T06:57:55.030Z,3.58
2023-01-04T06:58:30.922Z,3.20
2023-01-04T06:59:03.702Z,2.80
2023-01-04T06:59:35.540Z,3.50
2023-01-04T07:00:09.675Z,3.25
2023-01-04T07:00:41.705Z,2.55
2023-01-04T07:01:13.726Z,3.30
2023-01-04T07:01:46.693Z,3.00
2023-01-04T07:02:18.695Z,3.17
2023-01-04T07:03:15.079Z,2.70
2023-01-04T07:03:43.466Z,2.50
2023-01-04T07:04:16.292Z,2.42
2023-01-04T07:04:48.243Z,3.10
2023-01-04T07:05:20.170Z,2.85
2023-01-04T07:05:53.485Z,2.70
2023-01-04T07:06:25.350Z,3.53
2023-01-04T07:06:58.530Z,2.83
2023-01-04T07:07:31.307Z,2.80
2023-01-04T07:08:07.896Z,2.80
2023-01-04T07:08:40.441Z,3.97
2023-01-04T07:09:13.208Z,10.35
2023-01-04T07:09:45.015Z,13.38
2023-01-04T07:10:16.885Z,32.15
2023-01-04T07:10:49.789Z,6.35
2023-01-04T07:11:21.616Z,13.02
2023-01-04T07:11:53.449Z,15.50
2023-01-04T07:12:26.631Z,9.52
2023-01-04T07:12:58.442Z,12.25
2023-01-04T07:13:30.245Z,5.28
2023-01-04T07:14:03.036Z,4.00
2023-01-04T07:14:34.888Z,3.67
2023-01-04T07:15:38.112Z,2.85
2023-01-04T07:16:00.636Z,2.55
2023-01-04T07:16:33.584Z,2.95
2023-01-04T07:17:05.452Z,2.60
2023-01-04T07:17:37.318Z,2.60
2023-01-04T07:18:10.700Z,2.20
2023-01-04T07:18:42.531Z,2.72
2023-01-04T07:19:15.582Z,2.67
2023-01-04T07:19:47.368Z,2.92
2023-01-04T07:20:19.191Z,2.97
2023-01-04T07:20:52.161Z,2.60
2023-01-04T07:21:25.660Z,2.22
2023-01-04T07:21:59.105Z,2.90
2023-01-04T07:22:31.901Z,2.53
2023-01-04T07:23:03.794Z,2.65
2023-01-04T07:23:36.610Z,2.50
2023-01-04T07:24:08.587Z,4.00
2023-01-04T07:24:40.640Z,4.05
2023-01-04T07:25:13.391Z,8.77
2023-01-04T07:25:45.231Z,5.55
2023-01-04T07:26:17.976Z,2.78
2023-01-04T07:26:49.767Z,2.70
2023-01-04T07:27:21.594Z,4.90
2023-01-04T07:27:54.795Z,4.07
2023-01-04T07:28:45.158Z,4.25
2023-01-04T07:29:17.365Z,4.90
2023-01-04T07:29:50.629Z,4.90
2023-01-04T07:30:23.137Z,4.20
2023-01-04T07:30:54.995Z,3.28
2023-01-04T07:31:27.835Z,2.85
2023-01-04T07:31:59.699Z,2.47
2023-01-04T07:32:31.515Z,1.92
2023-01-04T07:33:04.339Z,2.13
2023-01-04T07:33:36.287Z,2.70
2023-01-04T07:34:08.295Z,2.88
2023-01-04T07:34:41.102Z,2.05
2023-01-04T07:35:13.036Z,2.15
2023-01-04T07:35:44.794Z,2.58
2023-01-04T07:36:17.849Z,2.10
2023-01-04T07:36:50.411Z,2.38
2023-01-04T07:37:24.619Z,2.20
2023-01-04T07:37:58.934Z,2.70
2023-01-04T07:38:31.389Z,2.58
2023-01-04T07:39:05.295Z,2.30
2023-01-04T07:39:37.270Z,2.40
2023-01-04T07:40:09.845Z,2.60
2023-01-04T07:40:56.068Z,2.10
2023-01-04T07:41:28.852Z,2.15
2023-01-04T07:42:01.664Z,2.00
2023-01-04T07:42:33.480Z,2.50
2023-01-04T07:43:06.278Z,3.65
2023-01-04T07:43:38.092Z,2.45
2023-01-04T07:44:12.295Z,2.40
2023-01-04T07:44:44.703Z,2.42
2023-01-04T07:45:17.595Z,2.63
2023-01-04T07:45:49.447Z,2.05
2023-01-04T07:46:22.011Z,2.45
2023-01-04T07:46:55.143Z,3.08
2023-01-04T07:47:27.928Z,2.40
2023-01-04T07:47:59.828Z,2.20
2023-01-04T07:48:32.790Z,2.13
2023-01-04T07:49:05.553Z,2.78
2023-01-04T07:49:38.436Z,2.03
2023-01-04T07:50:10.345Z,2.08
2023-01-04T07:50:43.159Z,1.90
2023-01-04T07:51:15.092Z,2.22
2023-01-04T07:51:48.704Z,1.80
2023-01-04T07:52:20.541Z,2.30
2023-01-04T07:52:54.693Z,2.30
2023-01-04T07:53:26.622Z,2.25
2023-01-04T07:53:59.738Z,2.53